Time;durP1;ratioP1;P1;durP2;ratioP2;P2;SDS_P1;SDS_P2;PMS_P1;PMS_P2;Temp;Humidity;BMP_temperature;BMP_pressure;BME280_temperature;BME280_humidity;BME280_pressure;Samples;Min_cycle;Max_cycle;Signal;HPM_P1;HPM_P2
2022/08/29 00:00:14;;;;;;;5.63;4.80;;;;;;;19.47;100.00;99455.94;4994055;28;20702;-79
2022/08/29 00:02:48;;;;;;;5.73;4.67;;;;;;;19.48;100.00;99462.19;5002995;28;20325;-80
2022/08/29 00:05:17;;;;;;;6.57;5.80;;;;;;;19.49;100.00;99455.66;4993855;28;20301;-79
2022/08/29 00:07:43;;;;;;;6.13;5.30;;;;;;;19.56;100.00;99450.72;4994120;28;20615;-79
2022/08/29 00:10:11;;;;;;;7.43;5.60;;;;;;;19.56;100.00;99451.53;4994853;28;20313;-79
2022/08/29 00:12:37;;;;;;;6.40;5.53;;;;;;;19.55;100.00;99447.19;4994182;28;20243;-80
2022/08/29 00:15:06;;;;;;;6.80;5.07;;;;;;;19.58;100.00;99462.94;4978038;28;20238;-79
2022/08/29 00:17:33;;;;;;;6.13;5.53;;;;;;;19.51;100.00;99456.19;4999168;28;20805;-80
2022/08/29 00:20:00;;;;;;;7.37;5.70;;;;;;;19.49;100.00;99466.53;4995737;28;20320;-79
2022/08/29 00:22:27;;;;;;;6.73;5.63;;;;;;;19.48;100.00;99451.31;5001389;28;20242;-79
2022/08/29 00:24:53;;;;;;;5.60;5.07;;;;;;;19.40;100.00;99460.03;4997847;28;20241;-79
2022/08/29 00:27:20;;;;;;;6.87;5.97;;;;;;;19.39;100.00;99455.69;4997556;28;20250;-79
2022/08/29 00:29:47;;;;;;;6.30;5.70;;;;;;;19.45;100.00;99452.72;4979145;28;20742;-79
2022/08/29 00:32:13;;;;;;;7.83;5.47;;;;;;;19.57;100.00;99441.47;5000760;28;20238;-79
2022/08/29 00:34:40;;;;;;;7.10;5.60;;;;;;;19.58;100.00;99445.81;5001407;28;20322;-79
2022/08/29 00:37:06;;;;;;;7.60;5.70;;;;;;;19.59;100.00;99450.97;5001432;28;20239;-79
2022/08/29 00:39:36;;;;;;;6.83;5.33;;;;;;;19.50;100.00;99452.69;4984555;28;20240;-80
2022/08/29 00:42:04;;;;;;;6.00;5.27;;;;;;;19.48;100.00;99452.13;4998395;28;20272;-79
2022/08/29 00:44:30;;;;;;;5.93;5.27;;;;;;;19.38;100.00;99457.59;4978683;28;20237;-79
2022/08/29 00:47:03;;;;;;;7.23;5.90;;;;;;;19.48;100.00;99454.03;4994608;28;20765;-79
2022/08/29 00:49:39;;;;;;;6.20;5.60;;;;;;;19.33;100.00;99458.44;4994548;28;20265;-79
2022/08/29 00:52:17;;;;;;;8.63;5.67;;;;;;;19.26;100.00;99449.81;4973698;28;20631;-78
2022/08/29 00:54:47;;;;;;;8.77;5.47;;;;;;;19.35;100.00;99447.31;4974110;28;20239;-78
2022/08/29 00:57:14;;;;;;;7.40;5.57;;;;;;;19.28;100.00;99438.63;4976473;28;20326;-80
2022/08/29 00:59:41;;;;;;;8.47;5.83;;;;;;;19.40;100.00;99446.47;4974492;28;20296;-79
2022/08/29 01:02:09;;;;;;;7.30;5.50;;;;;;;19.36;100.00;99440.78;4990953;28;20319;-78
2022/08/29 01:04:38;;;;;;;6.80;5.63;;;;;;;19.34;100.00;99446.47;4991716;28;20238;-80
2022/08/29 01:07:06;;;;;;;6.57;5.83;;;;;;;19.45;100.00;99444.56;4991771;28;20277;-79
2022/08/29 01:09:35;;;;;;;6.60;5.90;;;;;;;19.41;100.00;99440.72;4989559;28;20733;-79
2022/08/29 01:12:17;;;;;;;6.43;5.23;;;;;;;19.54;100.00;99439.34;4991398;28;20310;-80
2022/08/29 01:14:49;;;;;;;6.93;5.87;;;;;;;19.43;100.00;99437.72;4989890;28;20246;-79
2022/08/29 01:17:23;;;;;;;7.70;5.80;;;;;;;19.49;100.00;99442.06;4981150;28;20246;-79
2022/08/29 01:19:56;;;;;;;6.67;5.40;;;;;;;19.46;100.00;99437.19;4996894;28;20230;-79
2022/08/29 01:22:33;;;;;;;5.73;5.00;;;;;;;19.33;100.00;99439.41;4989524;28;20659;-80
2022/08/29 01:25:04;;;;;;;6.33;5.73;;;;;;;19.27;100.00;99447.91;4992063;28;20246;-80
2022/08/29 01:27:34;;;;;;;8.33;5.97;;;;;;;19.40;100.00;99438.31;4979142;28;20841;-79
2022/08/29 01:30:01;;;;;;;5.93;5.40;;;;;;;19.38;100.00;99444.00;4982253;28;20242;-79
2022/08/29 01:32:31;;;;;;;9.87;5.60;;;;;;;19.29;100.00;99451.94;4993277;28;20236;-81
2022/08/29 01:34:57;;;;;;;7.93;5.80;;;;;;;19.25;100.00;99450.88;4998033;28;20724;-79
2022/08/29 01:37:30;;;;;;;6.53;5.40;;;;;;;19.33;100.00;99449.47;4995470;28;20227;-79
2022/08/29 01:39:57;;;;;;;6.57;5.63;;;;;;;19.30;100.00;99444.63;4997876;28;20247;-80
2022/08/29 01:42:24;;;;;;;6.20;5.70;;;;;;;19.22;100.00;99453.34;4993935;28;20243;-80
2022/08/29 01:44:53;;;;;;;6.53;5.40;;;;;;;19.22;100.00;99454.13;4996754;28;20238;-80
2022/08/29 01:47:21;;;;;;;8.20;5.70;;;;;;;19.34;100.00;99448.38;4978491;28;20346;-79
2022/08/29 01:49:48;;;;;;;7.83;5.60;;;;;;;19.21;100.00;99452.53;4978674;28;20235;-79
2022/08/29 01:52:15;;;;;;;5.57;4.93;;;;;;;19.20;100.00;99450.09;4978508;28;20236;-79
2022/08/29 01:54:42;;;;;;;6.37;5.57;;;;;;;19.23;100.00;99454.97;4993411;28;20737;-79
2022/08/29 01:57:10;;;;;;;6.03;5.30;;;;;;;19.22;100.00;99454.13;5001259;28;20232;-79
2022/08/29 01:59:39;;;;;;;6.63;5.27;;;;;;;19.15;100.00;99461.81;5005581;28;20284;-80
2022/08/29 02:02:16;;;;;;;7.13;5.13;;;;;;;19.12;100.00;99458.84;5007383;28;20337;-79
2022/08/29 02:04:45;;;;;;;6.50;5.17;;;;;;;19.15;100.00;99461.81;5005743;28;20234;-80
2022/08/29 02:07:16;;;;;;;5.90;5.27;;;;;;;19.12;100.00;99467.00;4990473;28;20240;-79
2022/08/29 02:09:43;;;;;;;5.77;5.27;;;;;;;19.08;100.00;99466.75;5004307;28;20259;-80
2022/08/29 02:12:13;;;;;;;6.90;5.23;;;;;;;19.14;100.00;99460.16;4983153;28;20219;-79
2022/08/29 02:14:40;;;;;;;5.60;5.10;;;;;;;19.15;100.00;99455.56;4982954;28;20252;-80
2022/08/29 02:17:07;;;;;;;8.17;5.50;;;;;;;19.31;100.00;99457.09;5002512;28;20321;-80
2022/08/29 02:19:34;;;;;;;7.17;4.93;;;;;;;19.18;100.00;99468.56;4991220;28;20243;-80
2022/08/29 02:22:01;;;;;;;7.40;5.87;;;;;;;19.33;100.00;99472.03;4989484;28;20240;-78
2022/08/29 02:24:29;;;;;;;8.13;5.53;;;;;;;19.20;100.00;99475.34;4974544;28;20245;-80
2022/08/29 02:26:56;;;;;;;6.13;5.53;;;;;;;19.10;100.00;99477.31;4984820;28;20705;-80
2022/08/29 02:29:24;;;;;;;6.37;5.57;;;;;;;19.15;100.00;99480.81;4995091;28;20231;-79
2022/08/29 02:31:51;;;;;;;6.97;5.30;;;;;;;19.14;100.00;99473.75;5001055;28;20230;-79
2022/08/29 02:34:18;;;;;;;6.43;5.17;;;;;;;19.13;100.00;99488.41;4991551;28;20732;-79
2022/08/29 02:36:45;;;;;;;6.63;5.47;;;;;;;19.07;100.00;99478.69;4995946;28;20315;-80
2022/08/29 02:39:16;;;;;;;5.60;5.00;;;;;;;19.00;100.00;99480.06;4999564;28;20891;-80
2022/08/29 02:41:42;;;;;;;6.33;5.37;;;;;;;19.07;100.00;99477.88;4976600;28;20320;-79
2022/08/29 02:44:10;;;;;;;7.40;5.03;;;;;;;19.09;100.00;99473.78;4993466;28;20234;-79
2022/08/29 02:46:37;;;;;;;5.80;5.20;;;;;;;19.10;100.00;99474.59;4977628;28;20233;-79
2022/08/29 02:49:04;;;;;;;8.00;5.00;;;;;;;19.10;100.00;99480.00;4999177;28;20257;-80
2022/08/29 02:51:31;;;;;;;5.90;5.27;;;;;;;19.11;100.00;99474.31;4993545;28;20777;-79
2022/08/29 02:53:59;;;;;;;5.53;4.97;;;;;;;19.13;100.00;99482.97;4968646;28;20230;-79
2022/08/29 02:56:27;;;;;;;6.63;5.07;;;;;;;19.11;100.00;99492.50;4991669;28;20237;-80
2022/08/29 02:58:54;;;;;;;5.90;5.30;;;;;;;19.03;100.00;99490.38;4990920;28;20840;-79
2022/08/29 03:01:21;;;;;;;7.83;5.10;;;;;;;19.05;100.00;99491.72;4975213;28;20306;-80
2022/08/29 03:03:49;;;;;;;5.43;4.93;;;;;;;18.97;100.00;99489.59;4992143;28;20273;-81
2022/08/29 03:06:17;;;;;;;6.23;5.33;;;;;;;18.93;100.00;99493.94;4973412;28;20233;-79
2022/08/29 03:08:44;;;;;;;7.33;5.80;;;;;;;19.01;100.00;99487.94;4957383;28;20790;-79
2022/08/29 03:11:11;;;;;;;5.80;5.20;;;;;;;19.00;100.00;99491.72;4995945;28;20321;-80
2022/08/29 03:13:37;;;;;;;7.10;5.20;;;;;;;18.95;100.00;99497.19;4995489;28;20326;-80
2022/08/29 03:16:04;;;;;;;6.97;5.67;;;;;;;19.06;100.00;99496.06;4998899;28;20238;-79
2022/08/29 03:18:31;;;;;;;8.10;5.47;;;;;;;18.99;100.00;99492.81;5003634;28;20234;-80
2022/08/29 03:20:58;;;;;;;5.77;5.17;;;;;;;18.96;100.00;99493.38;5001799;28;20241;-79
2022/08/29 03:23:25;;;;;;;7.07;5.03;;;;;;;18.97;100.00;99489.59;4999978;28;20327;-80
2022/08/29 03:25:53;;;;;;;7.17;5.07;;;;;;;18.92;100.00;99495.03;4981354;28;20777;-80
2022/08/29 03:28:20;;;;;;;5.97;5.23;;;;;;;18.94;100.00;99492.88;4997503;28;20228;-79
2022/08/29 03:30:47;;;;;;;6.67;5.50;;;;;;;19.02;100.00;99494.19;4996101;28;20241;-79
2022/08/29 03:33:14;;;;;;;6.70;5.50;;;;;;;19.01;100.00;99496.06;4999609;28;20229;-79
2022/08/29 03:35:41;;;;;;;7.97;5.17;;;;;;;19.05;100.00;99499.03;4997043;28;20229;-79
2022/08/29 03:38:08;;;;;;;5.70;5.20;;;;;;;19.00;100.00;99501.78;4995131;28;20247;-79
2022/08/29 03:40:34;;;;;;;6.43;5.43;;;;;;;18.92;100.00;99501.28;4998465;28;20243;-79
2022/08/29 03:43:02;;;;;;;7.93;5.30;;;;;;;18.90;100.00;99499.91;4996105;28;20238;-79
2022/08/29 03:45:29;;;;;;;7.97;5.60;;;;;;;18.94;100.00;99494.75;4983573;28;20724;-79
2022/08/29 03:47:55;;;;;;;6.67;5.77;;;;;;;18.92;100.00;99500.47;4994707;28;20241;-79
2022/08/29 03:50:23;;;;;;;8.17;5.73;;;;;;;18.92;100.00;99503.19;4976689;28;20227;-79
2022/08/29 03:52:50;;;;;;;6.47;5.17;;;;;;;18.91;100.00;99510.50;4995699;28;20234;-80
2022/08/29 03:55:19;;;;;;;7.50;5.37;;;;;;;18.89;100.00;99507.25;4993009;28;20615;-79
2022/08/29 03:57:46;;;;;;;9.53;5.67;;;;;;;18.96;100.00;99504.25;4983449;28;20262;-79
2022/08/29 04:00:16;;;;;;;6.90;5.87;;;;;;;19.01;100.00;99509.66;4976397;28;20663;-80
2022/08/29 04:02:44;;;;;;;8.57;5.13;;;;;;;19.11;100.00;99514.22;4995692;28;20327;-79
2022/08/29 04:05:13;;;;;;;5.90;5.27;;;;;;;18.96;100.00;99517.81;4978840;28;20235;-79
2022/08/29 04:07:43;;;;;;;6.07;5.20;;;;;;;18.95;100.00;99518.06;4976967;28;20328;-79
2022/08/29 04:10:14;;;;;;;8.57;5.20;;;;;;;19.00;100.00;99518.88;4996354;28;20237;-79
2022/08/29 04:12:41;;;;;;;7.27;5.33;;;;;;;18.94;100.00;99525.44;4976873;28;20269;-79
2022/08/29 04:15:08;;;;;;;8.70;5.00;;;;;;;18.91;100.00;99525.97;4995016;28;20323;-80
2022/08/29 04:17:35;;;;;;;5.17;4.67;;;;;;;18.92;100.00;99530.31;4978003;28;20669;-79
2022/08/29 04:20:03;;;;;;;7.77;4.90;;;;;;;19.03;100.00;99528.38;4993005;28;20234;-79
2022/08/29 04:22:30;;;;;;;7.80;5.00;;;;;;;18.97;100.00;99524.88;4995465;28;20325;-80
2022/08/29 04:24:57;;;;;;;5.30;4.77;;;;;;;18.99;100.00;99532.75;4991350;28;20340;-80
2022/08/29 04:27:23;;;;;;;7.20;5.47;;;;;;;19.11;100.00;99530.53;4989623;28;20327;-80
2022/08/29 04:29:50;;;;;;;6.70;4.83;;;;;;;19.06;100.00;99538.69;4992039;28;20230;-79
2022/08/29 04:32:16;;;;;;;6.50;5.13;;;;;;;19.09;100.00;99530.78;4991901;28;20321;-80
2022/08/29 04:34:43;;;;;;;6.57;5.03;;;;;;;19.18;100.00;99536.44;4991796;28;20413;-81
2022/08/29 04:37:10;;;;;;;6.93;5.00;;;;;;;19.19;100.00;99536.19;4992308;28;20241;-80
2022/08/29 04:39:37;;;;;;;6.40;4.70;;;;;;;19.32;100.00;99537.47;4979319;28;20339;-80
2022/08/29 04:42:04;;;;;;;7.80;4.77;;;;;;;19.31;100.00;99542.13;4998670;28;20225;-80
2022/08/29 04:44:31;;;;;;;5.63;4.97;;;;;;;19.34;100.00;99538.84;4998272;28;20742;-80
2022/08/29 04:46:57;;;;;;;6.10;4.63;;;;;;;19.28;100.00;99539.94;4995857;28;20230;-80
2022/08/29 04:49:24;;;;;;;6.03;5.23;;;;;;;19.28;100.00;99539.94;4993969;28;20256;-80
2022/08/29 04:51:52;;;;;;;6.13;4.47;;;;;;;19.35;100.00;99548.63;4993524;28;20242;-80
2022/08/29 04:54:19;;;;;;;5.37;4.33;;;;;;;19.46;100.00;99554.84;4994991;28;20609;-81
2022/08/29 04:56:46;;;;;;;8.00;4.90;;;;;;;19.52;100.00;99555.63;4995813;28;20232;-80
2022/08/29 04:59:14;;;;;;;4.90;4.40;;;;;;;19.48;100.00;99560.81;4994406;28;20327;-81
2022/08/29 05:01:41;;;;;;;7.20;4.50;;;;;;;19.45;100.00;99553.22;4975948;28;20242;-81
2022/08/29 05:04:08;;;;;;;8.63;4.80;;;;;;;19.42;100.00;99564.59;4993583;28;20329;-81
2022/08/29 05:06:40;;;;;;;7.03;4.87;;;;;;;19.46;100.00;99552.13;4992192;28;20325;-80
2022/08/29 05:09:06;;;;;;;5.97;4.53;;;;;;;19.41;100.00;99562.19;4975731;28;20740;-81
2022/08/29 05:11:33;;;;;;;8.13;4.60;;;;;;;19.35;100.00;99564.09;4975325;28;20320;-80
2022/08/29 05:14:01;;;;;;;6.20;4.30;;;;;;;19.50;100.00;99564.06;4994318;28;20733;-81
2022/08/29 05:16:28;;;;;;;8.27;4.67;;;;;;;19.44;100.00;99573.34;4974936;28;20235;-81
2022/08/29 05:18:57;;;;;;;7.47;4.47;;;;;;;19.52;100.00;99566.50;4995495;28;20230;-81
2022/08/29 05:21:33;;;;;;;6.73;4.97;;;;;;;19.56;100.00;99565.66;4973952;28;20329;-80
2022/08/29 05:24:07;;;;;;;6.77;4.10;;;;;;;19.71;100.00;99560.13;4990782;28;20228;-79
2022/08/29 05:26:37;;;;;;;7.37;5.00;;;;;;;19.58;100.00;99565.38;4992290;28;20261;-81
2022/08/29 05:29:06;;;;;;;5.70;4.63;;;;;;;19.71;100.00;99570.19;4993250;28;20257;-80
2022/08/29 05:31:35;;;;;;;8.00;4.53;;;;;;;19.71;100.00;99572.91;4994702;28;20716;-82
2022/08/29 05:34:04;;;;;;;6.27;4.40;;;;;;;19.65;100.00;99574.03;4992248;28;20740;-80
2022/08/29 05:36:50;;;;;;;6.60;4.60;;;;;;;19.70;100.00;99580.25;4993690;28;20761;-81
2022/08/29 05:39:17;;;;;;;7.40;4.67;;;;;;;19.58;100.00;99578.97;4997680;28;20328;-80
2022/08/29 05:41:44;;;;;;;8.33;4.50;;;;;;;19.69;100.00;99581.34;4990796;28;20903;-80
2022/08/29 05:44:10;;;;;;;7.50;4.43;;;;;;;19.67;100.00;99585.44;4991948;28;20231;-80
2022/08/29 05:46:37;;;;;;;6.23;4.27;;;;;;;19.69;100.00;99584.06;4997184;28;20242;-80
2022/08/29 05:49:04;;;;;;;6.47;4.53;;;;;;;19.69;100.00;99581.34;4992390;28;20229;-79
2022/08/29 05:51:31;;;;;;;6.70;4.03;;;;;;;19.74;100.00;99583.22;4994639;28;20293;-81
2022/08/29 05:54:04;;;;;;;7.03;4.17;;;;;;;19.68;100.00;99578.91;4993199;28;20232;-79
2022/08/29 05:56:31;;;;;;;6.47;4.67;;;;;;;19.90;100.00;99583.94;4994448;28;20235;-82
2022/08/29 05:58:58;;;;;;;8.07;4.40;;;;;;;19.86;100.00;99574.72;4993370;28;20637;-81
2022/08/29 06:01:28;;;;;;;9.97;4.47;;;;;;;20.03;100.00;99575.16;4995106;28;20232;-81
2022/08/29 06:03:59;;;;;;;8.30;4.20;;;;;;;20.27;100.00;99572.53;4993867;28;20236;-85
2022/08/29 06:06:27;;;;;;;4.97;4.30;;;;;;;20.38;100.00;99577.66;4976473;28;20231;-85
2022/08/29 06:08:55;;;;;;;8.43;4.60;;;;;;;20.65;100.00;99577.13;4991055;28;20241;-84
2022/08/29 06:11:25;;;;;;;6.47;4.37;;;;;;;20.63;100.00;99590.19;4958521;28;20322;-85
2022/08/29 06:13:52;;;;;;;7.60;4.63;;;;;;;20.78;100.00;99587.34;4979447;28;20261;-85
2022/08/29 06:16:21;;;;;;;8.87;4.30;;;;;;;20.90;100.00;99590.47;4997002;28;20571;-84
2022/08/29 06:18:48;;;;;;;8.37;4.30;;;;;;;20.88;100.00;99592.69;4962526;28;20240;-84
2022/08/29 06:21:15;;;;;;;7.83;4.43;;;;;;;20.88;100.00;99587.25;4984530;28;20229;-83
2022/08/29 06:23:42;;;;;;;7.37;4.50;;;;;;;20.98;100.00;99597.22;4999416;28;20234;-85
2022/08/29 06:26:10;;;;;;;7.03;4.30;;;;;;;21.00;100.00;99603.19;4983107;28;20239;-85
2022/08/29 06:28:40;;;;;;;8.67;4.63;;;;;;;20.89;100.00;99607.94;4979383;28;20788;-85
2022/08/29 06:31:09;;;;;;;5.70;4.33;;;;;;;21.06;100.00;99610.19;5000063;28;20279;-84
2022/08/29 06:33:36;;;;;;;6.27;4.20;;;;;;;21.18;100.00;99610.66;4979919;28;20944;-84
2022/08/29 06:36:05;;;;;;;8.83;4.67;;;;;;;21.41;98.05;99607.13;4991952;28;20323;-85
2022/08/29 06:38:32;;;;;;;6.10;4.17;;;;;;;21.57;98.02;99598.72;4984136;28;20789;-86
2022/08/29 06:41:04;;;;;;;5.85;4.20;;;;;;;21.66;94.24;99602.44;4992151;28;20242;-85
2022/08/29 06:43:31;;;;;;;6.77;4.03;;;;;;;21.97;91.35;99606.41;5001786;28;20753;-85
2022/08/29 06:45:58;;;;;;;5.87;3.83;;;;;;;22.32;86.01;99611.31;4982228;28;20232;-84
2022/08/29 06:48:24;;;;;;;9.93;4.43;;;;;;;22.37;86.76;99608.50;5004198;28;20289;-84
2022/08/29 06:50:56;;;;;;;6.60;4.10;;;;;;;22.58;81.66;99606.28;5002440;28;20242;-85
2022/08/29 06:53:23;;;;;;;8.07;4.27;;;;;;;22.40;84.47;99607.91;4993209;28;20312;-86
2022/08/29 06:56:05;;;;;;;6.50;4.57;;;;;;;22.32;85.23;99613.22;4984756;28;20237;-83
2022/08/29 06:58:37;;;;;;;6.53;4.45;;;;;;;22.19;88.74;99617.53;5008913;28;20774;-83
2022/08/29 07:01:08;;;;;;;6.17;4.43;;;;;;;22.21;87.05;99612.56;5001664;28;20599;-85
2022/08/29 07:03:35;;;;;;;5.53;4.22;;;;;;;22.28;86.83;99621.22;4981559;28;20256;-84
2022/08/29 07:06:01;;;;;;;6.53;4.65;;;;;;;21.89;nan;99613.28;4983481;28;20238;-84
2022/08/29 07:08:28;;;;;;;5.15;4.25;;;;;;;22.07;91.10;99613.63;4995359;28;20235;-84
2022/08/29 07:10:55;;;;;;;4.90;4.22;;;;;;;22.16;89.02;99618.09;5006433;28;20235;-85
2022/08/29 07:13:21;;;;;;;6.33;4.50;;;;;;;21.93;90.81;99624.44;4970991;28;20241;-82
2022/08/29 07:15:48;;;;;;;8.30;4.80;;;;;;;21.95;89.97;99619.53;4955859;28;20329;-85
2022/08/29 07:18:15;;;;;;;6.40;4.77;;;;;;;21.85;91.44;99614.97;4976103;28;20720;-84
2022/08/29 07:20:42;;;;;;;6.40;4.80;;;;;;;22.02;89.85;99619.97;4976387;28;20231;-84
2022/08/29 07:23:08;;;;;;;8.27;5.00;;;;;;;21.86;92.31;99618.53;4989046;28;20234;-84
2022/08/29 07:25:37;;;;;;;8.20;4.83;;;;;;;21.82;93.04;99625.69;4976446;28;20808;-85
2022/08/29 07:28:04;;;;;;;7.23;5.00;;;;;;;21.80;93.11;99620.50;4985091;28;20244;-85
2022/08/29 07:30:33;;;;;;;5.77;4.40;;;;;;;21.94;90.52;99618.72;4968486;28;20242;-84
2022/08/29 07:33:00;;;;;;;7.03;4.80;;;;;;;22.11;87.53;99617.41;4980887;28;20741;-85
2022/08/29 07:35:26;;;;;;;6.53;4.70;;;;;;;21.96;88.88;99623.88;4984093;28;20268;-84
2022/08/29 07:38:00;;;;;;;5.97;4.70;;;;;;;22.11;89.33;99620.94;4971909;28;20234;-85
2022/08/29 07:40:27;;;;;;;8.10;4.43;;;;;;;22.25;85.53;99612.81;5006501;28;20318;-85
2022/08/29 07:42:54;;;;;;;9.07;4.70;;;;;;;22.48;83.71;99632.91;4986628;28;20230;-84
2022/08/29 07:45:20;;;;;;;5.57;4.63;;;;;;;22.62;82.47;99622.88;5006812;28;20227;-84
2022/08/29 07:47:47;;;;;;;6.47;4.30;;;;;;;22.73;82.80;99625.13;5003480;28;20272;-84
2022/08/29 07:50:14;;;;;;;7.38;4.75;;;;;;;22.42;84.97;99624.00;5004134;28;20753;-84
2022/08/29 07:52:40;;;;;;;5.35;4.30;;;;;;;22.61;84.95;99635.69;5006756;28;20257;-84
2022/08/29 07:55:08;;;;;;;7.50;4.47;;;;;;;22.88;80.82;99635.00;4972674;28;20369;-84
2022/08/29 07:57:35;;;;;;;8.43;4.85;;;;;;;22.96;81.38;99637.03;4989850;28;20240;-84
2022/08/29 08:00:09;;;;;;;5.65;5.05;;;;;;;22.92;81.05;99641.47;4990414;28;20562;-84
2022/08/29 08:02:37;;;;;;;8.70;4.50;;;;;;;22.96;80.99;99647.94;4995448;28;20232;-84
2022/08/29 08:05:05;;;;;;;6.47;4.35;;;;;;;23.13;78.86;99645.47;4993422;28;20228;-84
2022/08/29 08:07:33;;;;;;;5.82;4.82;;;;;;;22.86;79.04;99641.88;4993641;28;20227;-84
2022/08/29 08:10:01;;;;;;;8.07;4.45;;;;;;;22.88;77.37;99659.56;4975144;28;20672;-85
2022/08/29 08:12:28;;;;;;;6.85;4.50;;;;;;;22.79;78.88;99654.00;4976020;28;20247;-84
2022/08/29 08:14:55;;;;;;;5.38;4.32;;;;;;;22.69;78.05;99656.03;4993313;28;20247;-83
2022/08/29 08:17:23;;;;;;;6.25;3.95;;;;;;;22.52;78.69;99655.78;4993343;28;20224;-84
2022/08/29 08:19:49;;;;;;;5.53;3.95;;;;;;;22.40;78.21;99650.75;4992727;28;20240;-84
2022/08/29 08:22:16;;;;;;;5.95;4.30;;;;;;;22.56;75.75;99652.16;4995455;28;20226;-83
2022/08/29 08:24:47;;;;;;;6.05;4.28;;;;;;;22.65;75.53;99653.09;4994206;28;20278;-82
2022/08/29 08:27:13;;;;;;;4.38;3.97;;;;;;;23.07;72.10;99651.31;4992920;28;20231;-85
2022/08/29 08:29:42;;;;;;;6.15;3.63;;;;;;;23.25;70.54;99659.44;4975936;28;20231;-83
2022/08/29 08:32:09;;;;;;;5.65;4.30;;;;;;;23.42;70.72;99656.13;4993251;28;20338;-84
2022/08/29 08:34:35;;;;;;;5.07;4.07;;;;;;;23.60;68.57;99657.16;4992990;28;20251;-82
2022/08/29 08:37:07;;;;;;;5.40;4.18;;;;;;;23.81;66.12;99641.94;4992710;28;20322;-84
2022/08/29 08:39:34;;;;;;;5.55;4.18;;;;;;;23.84;66.71;99657.75;4973441;28;20243;-84
2022/08/29 08:42:21;;;;;;;4.55;4.00;;;;;;;23.37;64.97;99656.22;4985847;28;20235;-85
2022/08/29 08:45:02;;;;;;;7.00;4.20;;;;;;;23.47;66.31;99647.03;4996366;28;20243;-84
2022/08/29 08:47:43;;;;;;;6.75;4.20;;;;;;;23.60;68.34;99659.91;4992808;28;20750;-86
2022/08/29 08:50:22;;;;;;;7.88;4.60;;;;;;;23.91;68.51;99658.13;4981853;28;20238;-86
2022/08/29 08:53:35;;;;;;;7.13;4.65;;;;;;;23.97;67.09;99653.38;5000107;28;20245;-86
2022/08/29 08:56:10;;;;;;;6.38;4.45;;;;;;;24.04;65.92;99656.50;4998085;28;20663;-85
2022/08/29 08:59:04;;;;;;;5.38;4.00;;;;;;;23.88;64.76;99652.47;4984637;28;20261;-86
2022/08/29 09:01:34;;;;;;;5.93;4.20;;;;;;;23.85;64.39;99653.06;4967412;28;20231;-86
2022/08/29 09:04:20;;;;;;;4.05;3.17;;;;;;;23.89;62.24;99660.34;4980394;28;20230;-86
2022/08/29 09:06:56;;;;;;;4.63;3.28;;;;;;;24.07;58.93;99653.97;4994731;28;20251;-85
2022/08/29 09:09:54;;;;;;;4.80;3.50;;;;;;;24.06;58.38;99652.34;4993448;28;20227;-85
2022/08/29 09:12:40;;;;;;;5.30;3.78;;;;;;;23.99;60.01;99651.13;4990473;28;20262;-84
2022/08/29 09:15:13;;;;;;;6.57;3.72;;;;;;;23.93;60.69;99652.38;4993594;28;20225;-85
2022/08/29 09:17:42;;;;;;;5.28;3.88;;;;;;;23.57;63.21;99649.56;4974345;28;20240;-85
2022/08/29 09:20:17;;;;;;;7.35;3.85;;;;;;;23.50;63.62;99646.44;4976696;28;20231;-86
2022/08/29 09:23:00;;;;;;;5.43;3.63;;;;;;;24.07;60.84;99653.16;4963148;28;20346;-86
2022/08/29 09:25:29;;;;;;;7.05;3.97;;;;;;;24.34;61.51;99636.66;4993248;28;20293;-86
2022/08/29 09:27:57;;;;;;;5.13;3.72;;;;;;;24.45;60.49;99651.72;4999457;28;21091;-86
2022/08/29 09:30:27;;;;;;;4.10;3.70;;;;;;;24.67;57.83;99645.47;4978412;28;20708;-85
2022/08/29 09:33:00;;;;;;;4.97;3.95;;;;;;;24.72;59.06;99642.59;4985162;28;20765;-85
2022/08/29 09:35:33;;;;;;;6.60;3.58;;;;;;;24.58;57.32;99641.03;4979003;28;20236;-85
2022/08/29 09:38:07;;;;;;;4.25;3.30;;;;;;;24.79;54.62;99642.94;4983791;28;20262;-86
2022/08/29 09:41:00;;;;;;;5.78;3.47;;;;;;;24.75;54.91;99646.63;4983311;28;20235;-86
2022/08/29 09:43:29;;;;;;;5.97;3.33;;;;;;;24.63;54.34;99640.91;4982814;28;20290;-85
2022/08/29 09:46:06;;;;;;;4.97;3.50;;;;;;;24.68;57.18;99649.00;5000246;28;20237;-85
2022/08/29 09:48:35;;;;;;;4.38;3.53;;;;;;;24.60;57.44;99647.00;4998745;28;20318;-86
2022/08/29 09:51:21;;;;;;;7.25;3.95;;;;;;;24.75;56.32;99636.47;4967266;28;20274;-85
2022/08/29 09:53:48;;;;;;;5.15;3.60;;;;;;;25.01;56.48;99646.81;4999929;28;20237;-85
2022/08/29 09:56:19;;;;;;;5.60;3.80;;;;;;;25.03;56.26;99641.81;4961165;28;20245;-86
2022/08/29 09:59:00;;;;;;;3.75;3.40;;;;;;;25.14;56.07;99632.22;4981473;28;20232;-84
2022/08/29 10:01:27;;;;;;;4.40;3.33;;;;;;;25.20;54.47;99630.94;4976169;28;20250;-84
2022/08/29 10:03:59;;;;;;;5.70;3.13;;;;;;;25.06;53.58;99633.78;4980115;28;20235;-85
2022/08/29 10:06:30;;;;;;;5.57;3.22;;;;;;;24.54;55.95;99630.69;4999519;28;20317;-86
2022/08/29 10:09:01;;;;;;;7.03;3.65;;;;;;;24.56;56.22;99631.19;5001494;28;20261;-85
2022/08/29 10:11:49;;;;;;;3.97;3.30;;;;;;;25.10;54.53;99628.50;4982251;28;20230;-85
2022/08/29 10:14:41;;;;;;;4.43;3.00;;;;;;;25.08;54.84;99614.28;4980370;28;20244;-85
2022/08/29 10:20:27;;;;;;;4.85;3.17;;;;;;;25.27;53.59;99620.34;4972156;28;20612;-85
2022/08/29 10:23:02;;;;;;;6.72;3.40;;;;;;;25.01;52.59;99620.19;4972249;28;20268;-85
2022/08/29 10:25:38;;;;;;;3.30;2.70;;;;;;;25.33;51.61;99619.06;4976278;28;20242;-85
2022/08/29 10:28:12;;;;;;;6.13;3.20;;;;;;;25.07;50.01;99621.69;4991485;28;20761;-85
2022/08/29 10:30:57;;;;;;;3.22;2.92;;;;;;;25.18;51.07;99612.06;4992687;28;20268;-85
2022/08/29 10:33:55;;;;;;;7.50;3.20;;;;;;;25.35;50.39;99622.28;4954153;28;20589;-85
2022/08/29 10:36:31;;;;;;;3.45;2.65;;;;;;;25.36;48.37;99626.66;4987663;28;20252;-86
2022/08/29 10:39:11;;;;;;;3.05;2.75;;;;;;;25.49;48.59;99612.00;4959307;28;20235;-85
2022/08/29 10:42:08;;;;;;;4.10;3.03;;;;;;;25.37;50.06;99622.78;4992251;28;20241;-86
2022/08/29 10:44:53;;;;;;;3.85;2.70;;;;;;;25.38;48.08;99625.19;4971217;28;20242;-86
2022/08/29 10:47:38;;;;;;;4.55;3.20;;;;;;;25.51;48.59;99617.19;4987769;28;20674;-85
2022/08/29 10:50:18;;;;;;;3.10;2.70;;;;;;;25.46;48.63;99609.91;4972827;28;20299;-85
2022/08/29 10:53:31;;;;;;;4.13;2.90;;;;;;;25.68;48.27;99609.84;4977737;28;20628;-85
2022/08/29 10:56:37;;;;;;;3.00;2.70;;;;;;;25.70;47.80;99618.56;4993543;28;20245;-85
2022/08/29 10:59:17;;;;;;;5.32;2.50;;;;;;;25.92;47.42;99601.16;4939382;28;20242;-84
2022/08/29 11:01:56;;;;;;;3.75;2.47;;;;;;;25.48;47.19;99612.31;4990735;28;20250;-86
2022/08/29 11:04:30;;;;;;;3.28;2.60;;;;;;;25.83;47.39;99601.16;4991418;28;20231;-85
2022/08/29 11:07:11;;;;;;;4.50;2.40;;;;;;;26.01;47.28;99595.66;4944811;28;20653;-85
2022/08/29 11:10:20;;;;;;;3.00;2.65;;;;;;;25.97;46.01;99594.72;4959530;28;20299;-85
2022/08/29 11:13:12;;;;;;;4.45;2.70;;;;;;;26.54;45.22;99590.69;4922276;29;20243;-85
2022/08/29 11:15:38;;;;;;;4.18;2.60;;;;;;;26.62;45.59;99592.59;4915264;29;20337;-85
2022/08/29 11:18:19;;;;;;;4.32;2.83;;;;;;;26.71;44.82;99592.56;4970230;28;20254;-85
2022/08/29 11:20:54;;;;;;;3.03;2.60;;;;;;;26.56;45.30;99585.66;4992347;28;20330;-84
2022/08/29 11:23:38;;;;;;;3.50;2.72;;;;;;;26.87;45.03;99596.44;4972955;28;20297;-85
2022/08/29 11:26:10;;;;;;;5.07;2.70;;;;;;;26.93;44.66;99594.31;4991855;28;20242;-84
2022/08/29 11:28:47;;;;;;;4.03;2.60;;;;;;;26.96;42.93;99591.72;4991497;28;20309;-85
2022/08/29 11:31:20;;;;;;;3.35;2.85;;;;;;;26.69;44.37;99594.81;4991313;28;20227;-85
2022/08/29 11:33:57;;;;;;;3.30;2.47;;;;;;;26.42;43.76;99578.72;4972882;28;20580;-83
2022/08/29 11:36:44;;;;;;;3.28;2.42;;;;;;;26.86;42.16;99577.53;4957304;28;20231;-85
2022/08/29 11:39:33;;;;;;;3.13;2.25;;;;;;;27.23;40.93;99579.47;4980075;28;20235;-83
2022/08/29 11:42:03;;;;;;;3.15;2.38;;;;;;;27.37;39.80;99577.31;4980158;28;20243;-84
2022/08/29 11:44:34;;;;;;;5.50;2.58;;;;;;;27.44;40.09;99574.03;4994546;28;20234;-85
2022/08/29 11:47:01;;;;;;;2.72;2.20;;;;;;;27.59;40.61;99581.75;4982014;28;20235;-84
2022/08/29 11:49:42;;;;;;;6.07;2.63;;;;;;;27.36;40.60;99578.44;4984994;28;20230;-84